Genesis II — EILJ9 — position and weather

sailwx.info

Track history (hours):
 
Tides and Currents Weather Stations Pressure Air Temp Water Temp Dewpoint Dewpoint Depression Visibility Wind Speed Wind Dir Waves Ship Positions

Genesis II

Last reported at 2015-Mar-26 21:33 UTC. Time now 2015-Mar-26 22:31 UTC.
Position N 54°38' W 008°26'.

Length 53 m; draft 6.6 m.

Type: Fishing. MMSI: 250002424.

Date/timePositionNaut miles runAvg speedWind from/ knotsBaromVisibWave heightAir tempDewpointWater temp
2015-Mar-26 21:33N 54°38' W 008°26'0 0.0
2015-Mar-26 20:33N 54°38' W 008°26'0 0.0
2015-Mar-26 19:33N 54°38' W 008°26'0 0.0
2015-Mar-26 18:33N 54°38' W 008°26'0 0.0
2015-Mar-26 17:33N 54°38' W 008°26'0 0.0
2015-Mar-26 16:34N 54°38' W 008°26'0 0.0
2015-Mar-26 15:33N 54°38' W 008°26'0 0.0
2015-Mar-26 14:33N 54°38' W 008°26'0 0.0
2015-Mar-26 13:33N 54°38' W 008°26'0 0.0
2015-Mar-26 12:33N 54°38' W 008°26'0 0.0
2015-Mar-26 11:33N 54°38' W 008°26'0 0.0
2015-Mar-26 10:33N 54°38' W 008°26'0 0.0
2015-Mar-26 09:33N 54°38' W 008°26'0 0.0
2015-Mar-26 08:34N 54°38' W 008°26'0 0.0
2015-Mar-26 07:33N 54°38' W 008°26'0 0.0
2015-Mar-26 06:34N 54°38' W 008°26'0 0.0
2015-Mar-26 05:33N 54°38' W 008°26'0 0.0
2015-Mar-26 04:33N 54°38' W 008°26'0 0.0
2015-Mar-26 03:34N 54°38' W 008°26'0 0.0
2015-Mar-26 02:33N 54°38' W 008°26'0 0.0
2015-Mar-26 01:33N 54°38' W 008°26'0 0.0
2015-Mar-26 00:34N 54°38' W 008°26'0 0.0
2015-Mar-25 23:34N 54°38' W 008°26'0 0.0
2015-Mar-25 22:34N 54°38' W 008°26'0 0.0
2015-Mar-25 21:34N 54°38' W 008°26'0 0.0
2015-Mar-25 20:34N 54°38' W 008°26'0 0.0
2015-Mar-25 19:34N 54°38' W 008°26'2 2.3
2015-Mar-25 18:34N 54°36' W 008°28'1010.2
2015-Mar-25 17:33N 54°37' W 008°46'2 0.1
2015-Mar-23 21:15N 54°35' W 008°48'5 6.7
2015-Mar-23 20:33N 54°35' W 008°40'7 6.6
2015-Mar-23 19:33N 54°36' W 008°29'3 2.7
2015-Mar-23 18:33N 54°38' W 008°27'0 0.0
2015-Mar-23 17:33N 54°38' W 008°27'0 0.0
2015-Mar-23 16:33N 54°38' W 008°27'0 0.0
2015-Mar-23 15:34N 54°38' W 008°27'0 0.0
2015-Mar-23 14:33N 54°38' W 008°27'0 0.0
2015-Mar-23 13:34N 54°38' W 008°27'0 0.0
2015-Mar-23 12:33N 54°38' W 008°27'0 0.0
2015-Mar-23 11:33N 54°38' W 008°27'0 0.0
2015-Mar-23 10:33N 54°38' W 008°27'0 0.0
2015-Mar-23 09:33N 54°38' W 008°27'0 0.0
2015-Mar-23 08:34N 54°38' W 008°27'0 0.0
2015-Mar-23 07:34N 54°38' W 008°27'0 0.0
2015-Mar-23 06:34N 54°38' W 008°27'0 0.0
2015-Mar-23 05:34N 54°38' W 008°27'0 0.0
2015-Mar-23 04:33N 54°38' W 008°27'0 0.0
2015-Mar-23 03:33N 54°38' W 008°27'0 0.0
2015-Mar-23 02:33N 54°38' W 008°27'0 0.0
2015-Mar-23 01:34N 54°38' W 008°27'0 0.0
2015-Mar-23 00:34N 54°38' W 008°27'0 0.0
2015-Mar-22 23:34N 54°38' W 008°27'0 0.0
2015-Mar-22 22:33N 54°38' W 008°27'0 0.0
2015-Mar-22 21:33N 54°38' W 008°27'0 0.0
2015-Mar-22 20:34N 54°38' W 008°27'0 0.0
2015-Mar-22 19:34N 54°38' W 008°27'0 0.0
2015-Mar-22 18:33N 54°38' W 008°27'0 0.0
2015-Mar-22 17:34N 54°38' W 008°27'0 0.0
2015-Mar-22 16:34N 54°38' W 008°27'0 0.0
2015-Mar-22 15:33N 54°38' W 008°27'0 0.0
2015-Mar-22 14:33N 54°38' W 008°27'0 0.0
2015-Mar-22 13:33N 54°38' W 008°27'0 0.0
2015-Mar-22 12:34N 54°38' W 008°27'0 0.0
2015-Mar-22 11:33N 54°38' W 008°27'0 0.0
2015-Mar-22 10:34N 54°38' W 008°27'0 0.0
2015-Mar-22 09:33N 54°38' W 008°27'0 0.0
2015-Mar-22 08:33N 54°38' W 008°27'0 0.0
2015-Mar-22 07:33N 54°38' W 008°27'0 0.0
2015-Mar-22 06:33N 54°38' W 008°27'0 0.0
2015-Mar-22 05:34N 54°38' W 008°27'0 0.0
2015-Mar-22 04:33N 54°38' W 008°27'0 0.0
2015-Mar-22 03:33N 54°38' W 008°27'0 0.0
2015-Mar-22 02:33N 54°38' W 008°27'0 0.0
2015-Mar-22 01:33N 54°38' W 008°27'0 0.0
2015-Mar-22 00:34N 54°38' W 008°27'0 0.0
2015-Mar-21 23:34N 54°38' W 008°27'0 0.0
2015-Mar-21 22:33N 54°38' W 008°27'0 0.0
2015-Mar-21 21:33N 54°38' W 008°27'0 0.0
2015-Mar-21 20:33N 54°38' W 008°27'0 0.0
2015-Mar-21 19:33N 54°38' W 008°27'0 0.0
2015-Mar-21 18:34N 54°38' W 008°27'0 0.0
2015-Mar-21 17:34N 54°38' W 008°27'0 0.0
2015-Mar-21 16:33N 54°38' W 008°27'0 0.0
2015-Mar-21 15:33N 54°38' W 008°27'0 0.0
2015-Mar-21 14:34N 54°38' W 008°27'0 0.0
2015-Mar-21 13:33N 54°38' W 008°27'0 0.0
2015-Mar-21 12:33N 54°38' W 008°27'0 0.0
2015-Mar-21 11:34N 54°38' W 008°27'0 0.0
2015-Mar-21 10:34N 54°38' W 008°27'0 0.0
2015-Mar-21 09:34N 54°38' W 008°27'0 0.0
2015-Mar-21 08:34N 54°38' W 008°27'0 0.0
2015-Mar-21 07:33N 54°38' W 008°27'0 0.0
2015-Mar-21 06:33N 54°38' W 008°27'0 0.0
2015-Mar-21 05:33N 54°38' W 008°27'0 0.0
2015-Mar-21 04:33N 54°38' W 008°27'0 0.0
2015-Mar-21 03:33N 54°38' W 008°27'0 0.0
2015-Mar-21 02:33N 54°38' W 008°27'0 0.0
2015-Mar-21 01:33N 54°38' W 008°27'0 0.0
2015-Mar-21 00:34N 54°38' W 008°27'0 0.0
2015-Mar-20 23:33N 54°38' W 008°27'0 0.0
2015-Mar-20 22:33N 54°38' W 008°27'0 0.0
2015-Mar-20 21:33N 54°38' W 008°27'0 0.0
2015-Mar-20 20:34N 54°38' W 008°27'0 0.0
2015-Mar-20 19:33N 54°38' W 008°27'0 0.0
2015-Mar-20 18:33N 54°38' W 008°27'0 0.0
2015-Mar-20 17:34N 54°38' W 008°27'0 0.0
2015-Mar-20 16:33N 54°38' W 008°27'0 0.0
2015-Mar-20 15:33N 54°38' W 008°27'0 0.0
2015-Mar-20 14:33N 54°38' W 008°27'0 0.0
2015-Mar-20 13:33N 54°38' W 008°27'0 0.0
2015-Mar-20 12:33N 54°38' W 008°27'0 0.0
2015-Mar-20 11:34N 54°38' W 008°27'0 0.0
2015-Mar-20 10:33N 54°38' W 008°27'0 0.0
2015-Mar-20 09:33N 54°38' W 008°27'0 0.0
2015-Mar-20 08:34N 54°38' W 008°27'0 0.0
2015-Mar-20 07:33N 54°38' W 008°27'0 0.0
2015-Mar-20 06:33N 54°38' W 008°27'0 0.0
2015-Mar-20 05:34N 54°38' W 008°27'0 0.0
2015-Mar-20 04:34N 54°38' W 008°27'0 0.0
2015-Mar-20 03:33N 54°38' W 008°27'0 0.0
2015-Mar-20 02:34N 54°38' W 008°27'0 0.0
2015-Mar-20 01:33N 54°38' W 008°27'0 0.0
2015-Mar-20 00:33N 54°38' W 008°27'0 0.0
2015-Mar-19 23:33N 54°38' W 008°27'0 0.0
2015-Mar-19 22:34N 54°38' W 008°27'0 0.0
2015-Mar-19 21:33N 54°38' W 008°27'2 1.8
2015-Mar-19 20:33N 54°36' W 008°27'2 1.6
2015-Mar-19 19:34N 54°38' W 008°26'0 0.0
2015-Mar-19 18:33N 54°38' W 008°26'0 0.0
2015-Mar-19 17:33N 54°38' W 008°26'0 0.0
2015-Mar-19 16:33N 54°38' W 008°26'0 0.0
2015-Mar-19 15:33N 54°38' W 008°26'0 0.0
2015-Mar-19 14:34N 54°38' W 008°26'0 0.0
2015-Mar-19 13:33N 54°38' W 008°26'0 0.0
2015-Mar-19 12:33N 54°38' W 008°26'0 0.0
2015-Mar-19 11:33N 54°38' W 008°26'0 0.0
2015-Mar-19 10:33N 54°38' W 008°26'0 0.0
2015-Mar-19 09:33N 54°38' W 008°26'0 0.0
2015-Mar-19 08:33N 54°38' W 008°26'0 0.0
2015-Mar-19 07:34N 54°38' W 008°26'0 0.0
2015-Mar-19 06:33N 54°38' W 008°26'0 0.0
2015-Mar-19 05:33N 54°38' W 008°26'0 0.0
2015-Mar-19 04:33N 54°38' W 008°26'0 0.0
2015-Mar-19 03:34N 54°38' W 008°26'0 0.0
2015-Mar-19 02:34N 54°38' W 008°26'0 0.0
2015-Mar-19 01:33N 54°38' W 008°26'0 0.0
2015-Mar-19 00:33N 54°38' W 008°26'0 0.0
2015-Mar-18 23:33N 54°38' W 008°26'0 0.0
2015-Mar-18 22:34N 54°38' W 008°26'0 0.0
2015-Mar-18 21:34N 54°38' W 008°26'0 0.0
2015-Mar-18 20:33N 54°38' W 008°26'0 0.0
2015-Mar-18 19:33N 54°38' W 008°26'0 0.0
2015-Mar-18 18:33N 54°38' W 008°26'0 0.0
2015-Mar-18 17:33N 54°38' W 008°26'0 0.0
2015-Mar-18 16:34N 54°38' W 008°26'0 0.0
2015-Mar-18 15:34N 54°38' W 008°26'0 0.0
2015-Mar-18 14:33N 54°38' W 008°26'0 0.0
2015-Mar-18 13:34N 54°38' W 008°26'0 0.0
2015-Mar-18 12:34N 54°38' W 008°26'0 0.0
2015-Mar-18 11:33N 54°38' W 008°26'0 0.0
2015-Mar-18 10:34N 54°38' W 008°26'0 0.2
2015-Mar-18 09:33N 54°38' W 008°26'1110.6
2015-Mar-18 08:33N 54°34' W 008°44'3812.6
2015-Mar-18 05:33N 54°30' W 009°48'1312.8
2015-Mar-18 04:33N 54°29' W 010°10'1312.7
2015-Mar-18 03:31N 54°27' W 010°33'1312.8
2015-Mar-18 02:32N 54°26' W 010°54'  
Track history (hours):
 
Tides and Currents Weather Stations Pressure Air Temp Water Temp Dewpoint Dewpoint Depression Visibility Wind Speed Wind Dir Waves Ship Positions

Genesis II

Last reported at 2015-Mar-26 21:33 UTC. Time now 2015-Mar-26 22:31 UTC.
Position N 54°38' W 008°26'.

Length 53 m; draft 6.6 m.

Type: Fishing. MMSI: 250002424.

Date/timePositionNaut miles runAvg speedWind from/ knotsBaromVisibWave heightAir tempDewpointWater temp
2015-Mar-26 21:33N 54°38' W 008°26'0 0.0
2015-Mar-26 20:33N 54°38' W 008°26'0 0.0
2015-Mar-26 19:33N 54°38' W 008°26'0 0.0
2015-Mar-26 18:33N 54°38' W 008°26'0 0.0
2015-Mar-26 17:33N 54°38' W 008°26'0 0.0
2015-Mar-26 16:34N 54°38' W 008°26'0 0.0
2015-Mar-26 15:33N 54°38' W 008°26'0 0.0
2015-Mar-26 14:33N 54°38' W 008°26'0 0.0
2015-Mar-26 13:33N 54°38' W 008°26'0 0.0
2015-Mar-26 12:33N 54°38' W 008°26'0 0.0
2015-Mar-26 11:33N 54°38' W 008°26'0 0.0
2015-Mar-26 10:33N 54°38' W 008°26'0 0.0
2015-Mar-26 09:33N 54°38' W 008°26'0 0.0
2015-Mar-26 08:34N 54°38' W 008°26'0 0.0
2015-Mar-26 07:33N 54°38' W 008°26'0 0.0
2015-Mar-26 06:34N 54°38' W 008°26'0 0.0
2015-Mar-26 05:33N 54°38' W 008°26'0 0.0
2015-Mar-26 04:33N 54°38' W 008°26'0 0.0
2015-Mar-26 03:34N 54°38' W 008°26'0 0.0
2015-Mar-26 02:33N 54°38' W 008°26'0 0.0
2015-Mar-26 01:33N 54°38' W 008°26'0 0.0
2015-Mar-26 00:34N 54°38' W 008°26'0 0.0
2015-Mar-25 23:34N 54°38' W 008°26'0 0.0
2015-Mar-25 22:34N 54°38' W 008°26'0 0.0
2015-Mar-25 21:34N 54°38' W 008°26'0 0.0
2015-Mar-25 20:34N 54°38' W 008°26'0 0.0
2015-Mar-25 19:34N 54°38' W 008°26'2 2.3
2015-Mar-25 18:34N 54°36' W 008°28'1010.2
2015-Mar-25 17:33N 54°37' W 008°46'2 0.1
2015-Mar-23 21:15N 54°35' W 008°48'5 6.7
2015-Mar-23 20:33N 54°35' W 008°40'7 6.6
2015-Mar-23 19:33N 54°36' W 008°29'3 2.7
2015-Mar-23 18:33N 54°38' W 008°27'0 0.0
2015-Mar-23 17:33N 54°38' W 008°27'0 0.0
2015-Mar-23 16:33N 54°38' W 008°27'0 0.0
2015-Mar-23 15:34N 54°38' W 008°27'0 0.0
2015-Mar-23 14:33N 54°38' W 008°27'0 0.0
2015-Mar-23 13:34N 54°38' W 008°27'0 0.0
2015-Mar-23 12:33N 54°38' W 008°27'0 0.0
2015-Mar-23 11:33N 54°38' W 008°27'0 0.0
2015-Mar-23 10:33N 54°38' W 008°27'0 0.0
2015-Mar-23 09:33N 54°38' W 008°27'0 0.0
2015-Mar-23 08:34N 54°38' W 008°27'0 0.0
2015-Mar-23 07:34N 54°38' W 008°27'0 0.0
2015-Mar-23 06:34N 54°38' W 008°27'0 0.0
2015-Mar-23 05:34N 54°38' W 008°27'0 0.0
2015-Mar-23 04:33N 54°38' W 008°27'0 0.0
2015-Mar-23 03:33N 54°38' W 008°27'0 0.0
2015-Mar-23 02:33N 54°38' W 008°27'0 0.0
2015-Mar-23 01:34N 54°38' W 008°27'0 0.0
2015-Mar-23 00:34N 54°38' W 008°27'0 0.0
2015-Mar-22 23:34N 54°38' W 008°27'0 0.0
2015-Mar-22 22:33N 54°38' W 008°27'0 0.0
2015-Mar-22 21:33N 54°38' W 008°27'0 0.0
2015-Mar-22 20:34N 54°38' W 008°27'0 0.0
2015-Mar-22 19:34N 54°38' W 008°27'0 0.0
2015-Mar-22 18:33N 54°38' W 008°27'0 0.0
2015-Mar-22 17:34N 54°38' W 008°27'0 0.0
2015-Mar-22 16:34N 54°38' W 008°27'0 0.0
2015-Mar-22 15:33N 54°38' W 008°27'0 0.0
2015-Mar-22 14:33N 54°38' W 008°27'0 0.0
2015-Mar-22 13:33N 54°38' W 008°27'0 0.0
2015-Mar-22 12:34N 54°38' W 008°27'0 0.0
2015-Mar-22 11:33N 54°38' W 008°27'0 0.0
2015-Mar-22 10:34N 54°38' W 008°27'0 0.0
2015-Mar-22 09:33N 54°38' W 008°27'0 0.0
2015-Mar-22 08:33N 54°38' W 008°27'0 0.0
2015-Mar-22 07:33N 54°38' W 008°27'0 0.0
2015-Mar-22 06:33N 54°38' W 008°27'0 0.0
2015-Mar-22 05:34N 54°38' W 008°27'0 0.0
2015-Mar-22 04:33N 54°38' W 008°27'0 0.0
2015-Mar-22 03:33N 54°38' W 008°27'0 0.0
2015-Mar-22 02:33N 54°38' W 008°27'0 0.0
2015-Mar-22 01:33N 54°38' W 008°27'0 0.0
2015-Mar-22 00:34N 54°38' W 008°27'0 0.0
2015-Mar-21 23:34N 54°38' W 008°27'0 0.0
2015-Mar-21 22:33N 54°38' W 008°27'0 0.0
2015-Mar-21 21:33N 54°38' W 008°27'0 0.0
2015-Mar-21 20:33N 54°38' W 008°27'0 0.0
2015-Mar-21 19:33N 54°38' W 008°27'0 0.0
2015-Mar-21 18:34N 54°38' W 008°27'0 0.0
2015-Mar-21 17:34N 54°38' W 008°27'0 0.0
2015-Mar-21 16:33N 54°38' W 008°27'0 0.0
2015-Mar-21 15:33N 54°38' W 008°27'0 0.0
2015-Mar-21 14:34N 54°38' W 008°27'0 0.0
2015-Mar-21 13:33N 54°38' W 008°27'0 0.0
2015-Mar-21 12:33N 54°38' W 008°27'0 0.0
2015-Mar-21 11:34N 54°38' W 008°27'0 0.0
2015-Mar-21 10:34N 54°38' W 008°27'0 0.0
2015-Mar-21 09:34N 54°38' W 008°27'0 0.0
2015-Mar-21 08:34N 54°38' W 008°27'0 0.0
2015-Mar-21 07:33N 54°38' W 008°27'0 0.0
2015-Mar-21 06:33N 54°38' W 008°27'0 0.0
2015-Mar-21 05:33N 54°38' W 008°27'0 0.0
2015-Mar-21 04:33N 54°38' W 008°27'0 0.0
2015-Mar-21 03:33N 54°38' W 008°27'0 0.0
2015-Mar-21 02:33N 54°38' W 008°27'0 0.0
2015-Mar-21 01:33N 54°38' W 008°27'0 0.0
2015-Mar-21 00:34N 54°38' W 008°27'0 0.0
2015-Mar-20 23:33N 54°38' W 008°27'0 0.0
2015-Mar-20 22:33N 54°38' W 008°27'0 0.0
2015-Mar-20 21:33N 54°38' W 008°27'0 0.0
2015-Mar-20 20:34N 54°38' W 008°27'0 0.0
2015-Mar-20 19:33N 54°38' W 008°27'0 0.0
2015-Mar-20 18:33N 54°38' W 008°27'0 0.0
2015-Mar-20 17:34N 54°38' W 008°27'0 0.0
2015-Mar-20 16:33N 54°38' W 008°27'0 0.0
2015-Mar-20 15:33N 54°38' W 008°27'0 0.0
2015-Mar-20 14:33N 54°38' W 008°27'0 0.0
2015-Mar-20 13:33N 54°38' W 008°27'0 0.0
2015-Mar-20 12:33N 54°38' W 008°27'0 0.0
2015-Mar-20 11:34N 54°38' W 008°27'0 0.0
2015-Mar-20 10:33N 54°38' W 008°27'0 0.0
2015-Mar-20 09:33N 54°38' W 008°27'0 0.0
2015-Mar-20 08:34N 54°38' W 008°27'0 0.0
2015-Mar-20 07:33N 54°38' W 008°27'0 0.0
2015-Mar-20 06:33N 54°38' W 008°27'0 0.0
2015-Mar-20 05:34N 54°38' W 008°27'0 0.0
2015-Mar-20 04:34N 54°38' W 008°27'0 0.0
2015-Mar-20 03:33N 54°38' W 008°27'0 0.0
2015-Mar-20 02:34N 54°38' W 008°27'0 0.0
2015-Mar-20 01:33N 54°38' W 008°27'0 0.0
2015-Mar-20 00:33N 54°38' W 008°27'0 0.0
2015-Mar-19 23:33N 54°38' W 008°27'0 0.0
2015-Mar-19 22:34N 54°38' W 008°27'0 0.0
2015-Mar-19 21:33N 54°38' W 008°27'2 1.8
2015-Mar-19 20:33N 54°36' W 008°27'2 1.6
2015-Mar-19 19:34N 54°38' W 008°26'0 0.0
2015-Mar-19 18:33N 54°38' W 008°26'0 0.0
2015-Mar-19 17:33N 54°38' W 008°26'0 0.0
2015-Mar-19 16:33N 54°38' W 008°26'0 0.0
2015-Mar-19 15:33N 54°38' W 008°26'0 0.0
2015-Mar-19 14:34N 54°38' W 008°26'0 0.0
2015-Mar-19 13:33N 54°38' W 008°26'0 0.0
2015-Mar-19 12:33N 54°38' W 008°26'0 0.0
2015-Mar-19 11:33N 54°38' W 008°26'0 0.0
2015-Mar-19 10:33N 54°38' W 008°26'0 0.0
2015-Mar-19 09:33N 54°38' W 008°26'0 0.0
2015-Mar-19 08:33N 54°38' W 008°26'0 0.0
2015-Mar-19 07:34N 54°38' W 008°26'0 0.0
2015-Mar-19 06:33N 54°38' W 008°26'0 0.0
2015-Mar-19 05:33N 54°38' W 008°26'0 0.0
2015-Mar-19 04:33N 54°38' W 008°26'0 0.0
2015-Mar-19 03:34N 54°38' W 008°26'0 0.0
2015-Mar-19 02:34N 54°38' W 008°26'0 0.0
2015-Mar-19 01:33N 54°38' W 008°26'0 0.0
2015-Mar-19 00:33N 54°38' W 008°26'0 0.0
2015-Mar-18 23:33N 54°38' W 008°26'0 0.0
2015-Mar-18 22:34N 54°38' W 008°26'0 0.0
2015-Mar-18 21:34N 54°38' W 008°26'0 0.0
2015-Mar-18 20:33N 54°38' W 008°26'0 0.0
2015-Mar-18 19:33N 54°38' W 008°26'0 0.0
2015-Mar-18 18:33N 54°38' W 008°26'0 0.0
2015-Mar-18 17:33N 54°38' W 008°26'0 0.0
2015-Mar-18 16:34N 54°38' W 008°26'0 0.0
2015-Mar-18 15:34N 54°38' W 008°26'0 0.0
2015-Mar-18 14:33N 54°38' W 008°26'0 0.0
2015-Mar-18 13:34N 54°38' W 008°26'0 0.0
2015-Mar-18 12:34N 54°38' W 008°26'0 0.0
2015-Mar-18 11:33N 54°38' W 008°26'0 0.0
2015-Mar-18 10:34N 54°38' W 008°26'0 0.2
2015-Mar-18 09:33N 54°38' W 008°26'1110.6
2015-Mar-18 08:33N 54°34' W 008°44'3812.6
2015-Mar-18 05:33N 54°30' W 009°48'1312.8
2015-Mar-18 04:33N 54°29' W 010°10'1312.7
2015-Mar-18 03:31N 54°27' W 010°33'1312.8
2015-Mar-18 02:32N 54°26' W 010°54'  

Dump ship's entire track history